sensor_id;sensor_type;location;lat;lon;timestamp;P1;durP1;ratioP1;P2;durP2;ratioP2
62574;SDS011;53112;45.602;11.904;2022-07-01T00:00:03;12.23;;;5.50;;
62574;SDS011;53112;45.602;11.904;2022-07-01T00:02:29;8.02;;;5.60;;
62574;SDS011;53112;45.602;11.904;2022-07-01T00:04:55;9.68;;;5.65;;
62574;SDS011;53112;45.602;11.904;2022-07-01T00:07:21;9.93;;;5.65;;
62574;SDS011;53112;45.602;11.904;2022-07-01T00:09:47;13.55;;;6.18;;
62574;SDS011;53112;45.602;11.904;2022-07-01T00:12:13;8.60;;;5.60;;
62574;SDS011;53112;45.602;11.904;2022-07-01T00:14:39;10.43;;;6.43;;
62574;SDS011;53112;45.602;11.904;2022-07-01T00:17:04;11.50;;;7.20;;
62574;SDS011;53112;45.602;11.904;2022-07-01T00:19:30;12.13;;;7.30;;
62574;SDS011;53112;45.602;11.904;2022-07-01T00:21:56;11.88;;;7.13;;
62574;SDS011;53112;45.602;11.904;2022-07-01T00:24:22;16.15;;;7.35;;
62574;SDS011;53112;45.602;11.904;2022-07-01T00:26:48;12.32;;;7.32;;
62574;SDS011;53112;45.602;11.904;2022-07-01T00:29:14;12.38;;;7.45;;
62574;SDS011;53112;45.602;11.904;2022-07-01T00:31:40;11.20;;;7.22;;
62574;SDS011;53112;45.602;11.904;2022-07-01T00:34:06;10.82;;;8.07;;
62574;SDS011;53112;45.602;11.904;2022-07-01T00:36:32;10.75;;;7.78;;
62574;SDS011;53112;45.602;11.904;2022-07-01T00:38:58;11.20;;;7.45;;
62574;SDS011;53112;45.602;11.904;2022-07-01T00:41:24;13.98;;;8.07;;
62574;SDS011;53112;45.602;11.904;2022-07-01T00:43:50;13.20;;;8.80;;
62574;SDS011;53112;45.602;11.904;2022-07-01T00:46:16;15.38;;;9.73;;
62574;SDS011;53112;45.602;11.904;2022-07-01T00:48:42;14.05;;;7.80;;
62574;SDS011;53112;45.602;11.904;2022-07-01T00:51:09;14.43;;;10.40;;
62574;SDS011;53112;45.602;11.904;2022-07-01T00:53:36;14.07;;;9.18;;
62574;SDS011;53112;45.602;11.904;2022-07-01T00:56:02;14.15;;;8.88;;
62574;SDS011;53112;45.602;11.904;2022-07-01T00:58:29;13.90;;;8.75;;
62574;SDS011;53112;45.602;11.904;2022-07-01T01:00:56;12.80;;;8.38;;
62574;SDS011;53112;45.602;11.904;2022-07-01T01:03:24;13.02;;;8.10;;
62574;SDS011;53112;45.602;11.904;2022-07-01T01:05:51;13.80;;;8.77;;
62574;SDS011;53112;45.602;11.904;2022-07-01T01:08:20;17.50;;;9.52;;
62574;SDS011;53112;45.602;11.904;2022-07-01T01:10:46;13.52;;;8.70;;
62574;SDS011;53112;45.602;11.904;2022-07-01T01:13:12;11.40;;;8.27;;
62574;SDS011;53112;45.602;11.904;2022-07-01T01:15:38;12.85;;;7.85;;
62574;SDS011;53112;45.602;11.904;2022-07-01T01:18:05;11.27;;;8.05;;
62574;SDS011;53112;45.602;11.904;2022-07-01T01:20:37;11.10;;;7.57;;
62574;SDS011;53112;45.602;11.904;2022-07-01T01:23:04;14.88;;;8.75;;
62574;SDS011;53112;45.602;11.904;2022-07-01T01:25:33;12.85;;;7.63;;
62574;SDS011;53112;45.602;11.904;2022-07-01T01:28:00;12.18;;;7.68;;
62574;SDS011;53112;45.602;11.904;2022-07-01T01:30:26;14.05;;;7.82;;
62574;SDS011;53112;45.602;11.904;2022-07-01T01:32:53;9.52;;;6.32;;
62574;SDS011;53112;45.602;11.904;2022-07-01T01:35:19;13.07;;;7.70;;
62574;SDS011;53112;45.602;11.904;2022-07-01T01:37:46;14.98;;;8.80;;
62574;SDS011;53112;45.602;11.904;2022-07-01T01:40:12;13.50;;;9.85;;
62574;SDS011;53112;45.602;11.904;2022-07-01T01:42:44;14.38;;;9.15;;
62574;SDS011;53112;45.602;11.904;2022-07-01T01:45:11;12.25;;;8.70;;
62574;SDS011;53112;45.602;11.904;2022-07-01T01:47:38;11.98;;;8.02;;
62574;SDS011;53112;45.602;11.904;2022-07-01T01:50:04;13.40;;;8.75;;
62574;SDS011;53112;45.602;11.904;2022-07-01T01:52:32;13.93;;;8.38;;
62574;SDS011;53112;45.602;11.904;2022-07-01T01:54:59;13.52;;;7.68;;
62574;SDS011;53112;45.602;11.904;2022-07-01T01:57:25;14.02;;;8.40;;
62574;SDS011;53112;45.602;11.904;2022-07-01T01:59:51;12.95;;;8.52;;
62574;SDS011;53112;45.602;11.904;2022-07-01T02:02:17;11.25;;;7.97;;
62574;SDS011;53112;45.602;11.904;2022-07-01T02:04:43;15.95;;;9.23;;
62574;SDS011;53112;45.602;11.904;2022-07-01T02:07:09;11.45;;;7.85;;
62574;SDS011;53112;45.602;11.904;2022-07-01T02:09:35;12.15;;;8.05;;
62574;SDS011;53112;45.602;11.904;2022-07-01T02:12:01;10.88;;;7.25;;
62574;SDS011;53112;45.602;11.904;2022-07-01T02:14:27;14.43;;;9.52;;
62574;SDS011;53112;45.602;11.904;2022-07-01T02:16:53;11.85;;;7.18;;
62574;SDS011;53112;45.602;11.904;2022-07-01T02:19:19;15.38;;;8.80;;
62574;SDS011;53112;45.602;11.904;2022-07-01T02:21:45;15.40;;;9.10;;
62574;SDS011;53112;45.602;11.904;2022-07-01T02:24:11;13.45;;;8.63;;
62574;SDS011;53112;45.602;11.904;2022-07-01T02:26:37;13.52;;;8.25;;
62574;SDS011;53112;45.602;11.904;2022-07-01T02:29:03;11.40;;;7.97;;
62574;SDS011;53112;45.602;11.904;2022-07-01T02:31:29;12.95;;;8.32;;
62574;SDS011;53112;45.602;11.904;2022-07-01T02:33:55;14.18;;;8.85;;
62574;SDS011;53112;45.602;11.904;2022-07-01T02:36:21;15.52;;;9.35;;
62574;SDS011;53112;45.602;11.904;2022-07-01T02:38:46;15.43;;;9.30;;
62574;SDS011;53112;45.602;11.904;2022-07-01T02:41:13;12.73;;;8.32;;
62574;SDS011;53112;45.602;11.904;2022-07-01T02:43:39;14.82;;;8.50;;
62574;SDS011;53112;45.602;11.904;2022-07-01T02:46:05;12.43;;;7.13;;
62574;SDS011;53112;45.602;11.904;2022-07-01T02:48:30;12.15;;;8.15;;
62574;SDS011;53112;45.602;11.904;2022-07-01T02:50:56;14.75;;;9.23;;
62574;SDS011;53112;45.602;11.904;2022-07-01T02:53:22;16.90;;;10.27;;
62574;SDS011;53112;45.602;11.904;2022-07-01T02:55:48;14.23;;;9.32;;
62574;SDS011;53112;45.602;11.904;2022-07-01T02:58:14;17.52;;;9.23;;
62574;SDS011;53112;45.602;11.904;2022-07-01T03:00:40;10.90;;;7.30;;
62574;SDS011;53112;45.602;11.904;2022-07-01T03:03:06;12.27;;;7.32;;
62574;SDS011;53112;45.602;11.904;2022-07-01T03:05:32;10.98;;;6.43;;
62574;SDS011;53112;45.602;11.904;2022-07-01T03:07:58;11.15;;;7.07;;
62574;SDS011;53112;45.602;11.904;2022-07-01T03:10:24;10.20;;;6.93;;
62574;SDS011;53112;45.602;11.904;2022-07-01T03:12:50;11.20;;;8.05;;
62574;SDS011;53112;45.602;11.904;2022-07-01T03:15:16;12.40;;;7.20;;
62574;SDS011;53112;45.602;11.904;2022-07-01T03:17:43;10.68;;;7.60;;
62574;SDS011;53112;45.602;11.904;2022-07-01T03:20:12;13.18;;;8.07;;
62574;SDS011;53112;45.602;11.904;2022-07-01T03:22:41;11.25;;;7.93;;
62574;SDS011;53112;45.602;11.904;2022-07-01T03:25:08;17.65;;;9.75;;
62574;SDS011;53112;45.602;11.904;2022-07-01T03:27:35;12.93;;;8.68;;
62574;SDS011;53112;45.602;11.904;2022-07-01T03:30:02;14.18;;;8.95;;
62574;SDS011;53112;45.602;11.904;2022-07-01T03:32:29;15.45;;;9.30;;
62574;SDS011;53112;45.602;11.904;2022-07-01T03:34:55;14.85;;;9.63;;
62574;SDS011;53112;45.602;11.904;2022-07-01T03:37:22;14.77;;;9.02;;
62574;SDS011;53112;45.602;11.904;2022-07-01T03:39:49;13.20;;;8.10;;
62574;SDS011;53112;45.602;11.904;2022-07-01T03:42:15;10.93;;;7.90;;
62574;SDS011;53112;45.602;11.904;2022-07-01T03:44:43;9.85;;;7.40;;
62574;SDS011;53112;45.602;11.904;2022-07-01T03:47:12;13.93;;;8.82;;
62574;SDS011;53112;45.602;11.904;2022-07-01T03:49:38;16.05;;;8.93;;
62574;SDS011;53112;45.602;11.904;2022-07-01T03:52:04;14.80;;;9.57;;
62574;SDS011;53112;45.602;11.904;2022-07-01T03:54:30;14.15;;;8.85;;
62574;SDS011;53112;45.602;11.904;2022-07-01T03:57:01;12.75;;;8.63;;
62574;SDS011;53112;45.602;11.904;2022-07-01T03:59:30;13.20;;;9.23;;
62574;SDS011;53112;45.602;11.904;2022-07-01T04:01:57;15.02;;;9.52;;
62574;SDS011;53112;45.602;11.904;2022-07-01T04:04:24;11.93;;;8.63;;
62574;SDS011;53112;45.602;11.904;2022-07-01T04:06:52;12.43;;;8.15;;
62574;SDS011;53112;45.602;11.904;2022-07-01T04:09:19;15.75;;;10.27;;
62574;SDS011;53112;45.602;11.904;2022-07-01T04:11:46;17.55;;;11.23;;
62574;SDS011;53112;45.602;11.904;2022-07-01T04:14:14;19.80;;;11.07;;
62574;SDS011;53112;45.602;11.904;2022-07-01T04:16:40;16.83;;;11.15;;
62574;SDS011;53112;45.602;11.904;2022-07-01T04:19:10;14.57;;;10.35;;
62574;SDS011;53112;45.602;11.904;2022-07-01T04:21:36;15.00;;;10.05;;
62574;SDS011;53112;45.602;11.904;2022-07-01T04:24:21;15.23;;;10.85;;
62574;SDS011;53112;45.602;11.904;2022-07-01T04:26:50;16.25;;;10.98;;
62574;SDS011;53112;45.602;11.904;2022-07-01T04:29:17;17.52;;;10.63;;
62574;SDS011;53112;45.602;11.904;2022-07-01T04:31:44;17.90;;;10.60;;
62574;SDS011;53112;45.602;11.904;2022-07-01T04:34:10;19.42;;;12.40;;
62574;SDS011;53112;45.602;11.904;2022-07-01T04:36:36;16.30;;;11.25;;
62574;SDS011;53112;45.602;11.904;2022-07-01T04:39:03;18.27;;;11.20;;
62574;SDS011;53112;45.602;11.904;2022-07-01T04:41:30;20.58;;;11.50;;
62574;SDS011;53112;45.602;11.904;2022-07-01T04:44:15;17.02;;;10.85;;
62574;SDS011;53112;45.602;11.904;2022-07-01T04:46:42;13.65;;;9.52;;
62574;SDS011;53112;45.602;11.904;2022-07-01T04:49:08;20.35;;;11.90;;
62574;SDS011;53112;45.602;11.904;2022-07-01T04:51:34;19.25;;;11.75;;
62574;SDS011;53112;45.602;11.904;2022-07-01T04:54:00;19.17;;;11.65;;
62574;SDS011;53112;45.602;11.904;2022-07-01T04:56:29;15.15;;;10.20;;
62574;SDS011;53112;45.602;11.904;2022-07-01T04:58:56;18.55;;;11.85;;
62574;SDS011;53112;45.602;11.904;2022-07-01T05:01:22;17.02;;;10.38;;
62574;SDS011;53112;45.602;11.904;2022-07-01T05:03:49;18.45;;;11.60;;
62574;SDS011;53112;45.602;11.904;2022-07-01T05:06:16;19.63;;;11.45;;
62574;SDS011;53112;45.602;11.904;2022-07-01T05:08:42;17.83;;;10.65;;
62574;SDS011;53112;45.602;11.904;2022-07-01T05:11:08;16.80;;;11.10;;
62574;SDS011;53112;45.602;11.904;2022-07-01T05:13:34;14.70;;;10.45;;
62574;SDS011;53112;45.602;11.904;2022-07-01T05:16:00;13.52;;;8.57;;
62574;SDS011;53112;45.602;11.904;2022-07-01T05:18:26;14.27;;;8.80;;
62574;SDS011;53112;45.602;11.904;2022-07-01T05:21:11;13.82;;;9.57;;
62574;SDS011;53112;45.602;11.904;2022-07-01T05:23:55;18.30;;;10.40;;
62574;SDS011;53112;45.602;11.904;2022-07-01T05:26:21;16.63;;;11.23;;
62574;SDS011;53112;45.602;11.904;2022-07-01T05:28:50;17.02;;;9.93;;
62574;SDS011;53112;45.602;11.904;2022-07-01T05:31:16;16.65;;;10.75;;
62574;SDS011;53112;45.602;11.904;2022-07-01T05:33:42;16.67;;;11.02;;
62574;SDS011;53112;45.602;11.904;2022-07-01T05:36:08;21.65;;;11.57;;
62574;SDS011;53112;45.602;11.904;2022-07-01T05:38:34;19.88;;;10.93;;
62574;SDS011;53112;45.602;11.904;2022-07-01T05:41:01;16.70;;;11.13;;
62574;SDS011;53112;45.602;11.904;2022-07-01T05:43:27;18.92;;;10.25;;
62574;SDS011;53112;45.602;11.904;2022-07-01T05:45:53;19.15;;;10.48;;
62574;SDS011;53112;45.602;11.904;2022-07-01T05:48:19;15.15;;;11.38;;
62574;SDS011;53112;45.602;11.904;2022-07-01T05:50:45;16.50;;;11.30;;
62574;SDS011;53112;45.602;11.904;2022-07-01T05:53:12;18.52;;;10.70;;
62574;SDS011;53112;45.602;11.904;2022-07-01T05:55:39;16.95;;;10.25;;
62574;SDS011;53112;45.602;11.904;2022-07-01T05:58:05;16.25;;;10.00;;
62574;SDS011;53112;45.602;11.904;2022-07-01T06:00:33;16.80;;;10.45;;
62574;SDS011;53112;45.602;11.904;2022-07-01T06:03:00;16.42;;;9.98;;
62574;SDS011;53112;45.602;11.904;2022-07-01T06:05:26;17.45;;;10.77;;
62574;SDS011;53112;45.602;11.904;2022-07-01T06:07:52;15.57;;;9.70;;
62574;SDS011;53112;45.602;11.904;2022-07-01T06:10:18;16.35;;;9.07;;
62574;SDS011;53112;45.602;11.904;2022-07-01T06:12:44;15.60;;;9.30;;
62574;SDS011;53112;45.602;11.904;2022-07-01T06:15:11;14.63;;;9.27;;
62574;SDS011;53112;45.602;11.904;2022-07-01T06:17:38;16.33;;;9.38;;
62574;SDS011;53112;45.602;11.904;2022-07-01T06:20:06;13.70;;;8.90;;
62574;SDS011;53112;45.602;11.904;2022-07-01T06:22:32;13.13;;;8.07;;
62574;SDS011;53112;45.602;11.904;2022-07-01T06:24:59;15.50;;;9.27;;
62574;SDS011;53112;45.602;11.904;2022-07-01T06:27:26;14.38;;;8.90;;
62574;SDS011;53112;45.602;11.904;2022-07-01T06:29:52;15.63;;;9.48;;
62574;SDS011;53112;45.602;11.904;2022-07-01T06:32:18;14.98;;;9.15;;
62574;SDS011;53112;45.602;11.904;2022-07-01T06:34:45;14.18;;;8.23;;
62574;SDS011;53112;45.602;11.904;2022-07-01T06:37:12;15.93;;;8.15;;
62574;SDS011;53112;45.602;11.904;2022-07-01T06:39:38;15.18;;;8.43;;
62574;SDS011;53112;45.602;11.904;2022-07-01T06:42:04;10.75;;;7.00;;
62574;SDS011;53112;45.602;11.904;2022-07-01T06:44:30;13.63;;;7.45;;
62574;SDS011;53112;45.602;11.904;2022-07-01T06:46:56;12.95;;;6.88;;
62574;SDS011;53112;45.602;11.904;2022-07-01T06:49:22;13.00;;;6.75;;
62574;SDS011;53112;45.602;11.904;2022-07-01T06:51:48;11.20;;;6.30;;
62574;SDS011;53112;45.602;11.904;2022-07-01T06:54:14;12.27;;;6.45;;
62574;SDS011;53112;45.602;11.904;2022-07-01T06:56:43;10.65;;;5.85;;
62574;SDS011;53112;45.602;11.904;2022-07-01T06:59:09;8.75;;;5.40;;
62574;SDS011;53112;45.602;11.904;2022-07-01T07:01:35;12.48;;;5.60;;
62574;SDS011;53112;45.602;11.904;2022-07-01T07:04:01;11.95;;;5.70;;
62574;SDS011;53112;45.602;11.904;2022-07-01T07:06:27;13.52;;;5.65;;
62574;SDS011;53112;45.602;11.904;2022-07-01T07:08:54;10.60;;;5.50;;
62574;SDS011;53112;45.602;11.904;2022-07-01T07:11:20;11.38;;;5.60;;
62574;SDS011;53112;45.602;11.904;2022-07-01T07:13:46;10.52;;;4.70;;
62574;SDS011;53112;45.602;11.904;2022-07-01T07:16:12;9.32;;;5.00;;
62574;SDS011;53112;45.602;11.904;2022-07-01T07:18:38;8.27;;;4.88;;
62574;SDS011;53112;45.602;11.904;2022-07-01T07:21:04;9.00;;;4.30;;
62574;SDS011;53112;45.602;11.904;2022-07-01T07:23:30;11.70;;;5.20;;
62574;SDS011;53112;45.602;11.904;2022-07-01T07:25:56;7.43;;;4.47;;
62574;SDS011;53112;45.602;11.904;2022-07-01T07:28:22;9.13;;;4.57;;
62574;SDS011;53112;45.602;11.904;2022-07-01T07:30:48;9.35;;;4.80;;
62574;SDS011;53112;45.602;11.904;2022-07-01T07:33:14;9.35;;;4.30;;
62574;SDS011;53112;45.602;11.904;2022-07-01T07:35:41;8.25;;;4.00;;
62574;SDS011;53112;45.602;11.904;2022-07-01T07:38:07;10.95;;;4.20;;
62574;SDS011;53112;45.602;11.904;2022-07-01T07:40:33;8.40;;;4.07;;
62574;SDS011;53112;45.602;11.904;2022-07-01T07:43:00;8.48;;;4.10;;
62574;SDS011;53112;45.602;11.904;2022-07-01T07:45:26;9.80;;;3.63;;
62574;SDS011;53112;45.602;11.904;2022-07-01T07:47:52;7.63;;;3.13;;
62574;SDS011;53112;45.602;11.904;2022-07-01T07:50:20;6.88;;;3.67;;
62574;SDS011;53112;45.602;11.904;2022-07-01T07:52:47;9.50;;;3.40;;
62574;SDS011;53112;45.602;11.904;2022-07-01T07:55:14;8.77;;;3.50;;
62574;SDS011;53112;45.602;11.904;2022-07-01T07:57:40;7.15;;;3.17;;
62574;SDS011;53112;45.602;11.904;2022-07-01T08:00:08;7.47;;;3.50;;
62574;SDS011;53112;45.602;11.904;2022-07-01T08:02:37;6.47;;;3.10;;
62574;SDS011;53112;45.602;11.904;2022-07-01T08:05:04;7.40;;;3.30;;
62574;SDS011;53112;45.602;11.904;2022-07-01T08:07:38;8.27;;;3.00;;
62574;SDS011;53112;45.602;11.904;2022-07-01T08:10:06;8.95;;;3.33;;
62574;SDS011;53112;45.602;11.904;2022-07-01T08:12:34;10.60;;;3.50;;
62574;SDS011;53112;45.602;11.904;2022-07-01T08:15:00;7.20;;;3.22;;
62574;SDS011;53112;45.602;11.904;2022-07-01T08:17:26;8.45;;;3.35;;
62574;SDS011;53112;45.602;11.904;2022-07-01T08:19:52;8.60;;;3.50;;
62574;SDS011;53112;45.602;11.904;2022-07-01T08:22:18;7.93;;;3.20;;
62574;SDS011;53112;45.602;11.904;2022-07-01T08:24:44;5.57;;;3.10;;
62574;SDS011;53112;45.602;11.904;2022-07-01T08:27:11;6.18;;;3.33;;
62574;SDS011;53112;45.602;11.904;2022-07-01T08:29:38;8.07;;;3.03;;
62574;SDS011;53112;45.602;11.904;2022-07-01T08:32:04;10.70;;;3.65;;
62574;SDS011;53112;45.602;11.904;2022-07-01T08:34:31;8.95;;;3.00;;
62574;SDS011;53112;45.602;11.904;2022-07-01T08:36:57;9.80;;;2.97;;
62574;SDS011;53112;45.602;11.904;2022-07-01T08:39:23;6.75;;;2.95;;
62574;SDS011;53112;45.602;11.904;2022-07-01T08:41:49;6.88;;;2.90;;
62574;SDS011;53112;45.602;11.904;2022-07-01T08:44:15;5.97;;;2.80;;
62574;SDS011;53112;45.602;11.904;2022-07-01T08:46:41;7.07;;;2.90;;
62574;SDS011;53112;45.602;11.904;2022-07-01T08:49:07;6.18;;;2.75;;
62574;SDS011;53112;45.602;11.904;2022-07-01T08:51:33;7.57;;;2.90;;
62574;SDS011;53112;45.602;11.904;2022-07-01T08:53:59;11.93;;;3.25;;
62574;SDS011;53112;45.602;11.904;2022-07-01T08:56:25;7.75;;;3.10;;
62574;SDS011;53112;45.602;11.904;2022-07-01T08:59:06;6.70;;;2.85;;
62574;SDS011;53112;45.602;11.904;2022-07-01T09:01:36;6.22;;;2.65;;
62574;SDS011;53112;45.602;11.904;2022-07-01T09:04:15;10.45;;;3.40;;
62574;SDS011;53112;45.602;11.904;2022-07-01T09:06:44;7.93;;;3.00;;
62574;SDS011;53112;45.602;11.904;2022-07-01T09:09:14;9.18;;;3.10;;
62574;SDS011;53112;45.602;11.904;2022-07-01T09:11:51;9.85;;;3.55;;
62574;SDS011;53112;45.602;11.904;2022-07-01T09:14:20;7.47;;;3.30;;
62574;SDS011;53112;45.602;11.904;2022-07-01T09:16:54;10.70;;;3.20;;
62574;SDS011;53112;45.602;11.904;2022-07-01T09:19:23;6.72;;;3.28;;
62574;SDS011;53112;45.602;11.904;2022-07-01T09:21:51;10.02;;;3.15;;
62574;SDS011;53112;45.602;11.904;2022-07-01T09:24:28;10.02;;;3.47;;
62574;SDS011;53112;45.602;11.904;2022-07-01T09:29:30;6.53;;;3.20;;
62574;SDS011;53112;45.602;11.904;2022-07-01T09:32:03;9.35;;;3.40;;
62574;SDS011;53112;45.602;11.904;2022-07-01T09:34:35;7.28;;;3.20;;
62574;SDS011;53112;45.602;11.904;2022-07-01T09:37:05;8.70;;;3.20;;
62574;SDS011;53112;45.602;11.904;2022-07-01T09:39:41;6.10;;;2.72;;
62574;SDS011;53112;45.602;11.904;2022-07-01T09:42:10;10.43;;;3.05;;
62574;SDS011;53112;45.602;11.904;2022-07-01T09:44:50;9.65;;;3.08;;
62574;SDS011;53112;45.602;11.904;2022-07-01T09:47:27;7.63;;;3.25;;
62574;SDS011;53112;45.602;11.904;2022-07-01T09:49:54;6.95;;;3.17;;
62574;SDS011;53112;45.602;11.904;2022-07-01T09:52:21;10.52;;;3.28;;
62574;SDS011;53112;45.602;11.904;2022-07-01T09:54:48;7.25;;;2.97;;
62574;SDS011;53112;45.602;11.904;2022-07-01T09:57:15;8.25;;;2.80;;
62574;SDS011;53112;45.602;11.904;2022-07-01T10:03:05;10.73;;;3.00;;
62574;SDS011;53112;45.602;11.904;2022-07-01T10:05:34;7.47;;;2.97;;
62574;SDS011;53112;45.602;11.904;2022-07-01T10:14:02;8.48;;;2.90;;
62574;SDS011;53112;45.602;11.904;2022-07-01T10:16:30;8.90;;;2.80;;
62574;SDS011;53112;45.602;11.904;2022-07-01T10:18:58;9.45;;;2.97;;
62574;SDS011;53112;45.602;11.904;2022-07-01T10:21:25;7.57;;;2.42;;
62574;SDS011;53112;45.602;11.904;2022-07-01T10:26:41;8.40;;;2.78;;
62574;SDS011;53112;45.602;11.904;2022-07-01T10:29:27;8.55;;;2.83;;
62574;SDS011;53112;45.602;11.904;2022-07-01T10:34:46;7.95;;;2.40;;
62574;SDS011;53112;45.602;11.904;2022-07-01T10:37:12;7.50;;;2.55;;
62574;SDS011;53112;45.602;11.904;2022-07-01T10:42:19;8.13;;;2.63;;
62574;SDS011;53112;45.602;11.904;2022-07-01T10:47:32;5.97;;;2.40;;
62574;SDS011;53112;45.602;11.904;2022-07-01T10:50:06;8.77;;;2.70;;
62574;SDS011;53112;45.602;11.904;2022-07-01T10:52:36;8.38;;;2.53;;
62574;SDS011;53112;45.602;11.904;2022-07-01T10:55:05;9.43;;;3.08;;
62574;SDS011;53112;45.602;11.904;2022-07-01T10:57:37;8.27;;;2.60;;
62574;SDS011;53112;45.602;11.904;2022-07-01T11:02:31;5.88;;;2.50;;
62574;SDS011;53112;45.602;11.904;2022-07-01T11:05:02;9.38;;;2.70;;
62574;SDS011;53112;45.602;11.904;2022-07-01T11:07:36;10.57;;;2.70;;
62574;SDS011;53112;45.602;11.904;2022-07-01T11:10:05;7.68;;;2.47;;
62574;SDS011;53112;45.602;11.904;2022-07-01T11:12:33;8.23;;;2.55;;
62574;SDS011;53112;45.602;11.904;2022-07-01T11:15:00;5.75;;;2.40;;
62574;SDS011;53112;45.602;11.904;2022-07-01T11:17:27;8.25;;;2.53;;
62574;SDS011;53112;45.602;11.904;2022-07-01T11:19:55;7.22;;;2.60;;
62574;SDS011;53112;45.602;11.904;2022-07-01T11:22:28;7.55;;;2.60;;
62574;SDS011;53112;45.602;11.904;2022-07-01T11:24:56;8.55;;;2.72;;
62574;SDS011;53112;45.602;11.904;2022-07-01T11:27:24;8.77;;;2.72;;
62574;SDS011;53112;45.602;11.904;2022-07-01T11:29:54;7.88;;;2.63;;
62574;SDS011;53112;45.602;11.904;2022-07-01T11:34:52;7.20;;;2.63;;
62574;SDS011;53112;45.602;11.904;2022-07-01T11:37:18;8.65;;;2.70;;
62574;SDS011;53112;45.602;11.904;2022-07-01T11:42:32;8.27;;;2.65;;
62574;SDS011;53112;45.602;11.904;2022-07-01T11:44:58;7.32;;;2.63;;
62574;SDS011;53112;45.602;11.904;2022-07-01T11:47:25;9.95;;;2.80;;
62574;SDS011;53112;45.602;11.904;2022-07-01T11:49:52;9.82;;;2.80;;
62574;SDS011;53112;45.602;11.904;2022-07-01T11:52:19;11.68;;;2.80;;
62574;SDS011;53112;45.602;11.904;2022-07-01T11:54:47;8.93;;;2.67;;
62574;SDS011;53112;45.602;11.904;2022-07-01T11:57:18;8.25;;;2.38;;
62574;SDS011;53112;45.602;11.904;2022-07-01T11:59:47;9.27;;;2.42;;
62574;SDS011;53112;45.602;11.904;2022-07-01T12:02:14;9.98;;;2.60;;
62574;SDS011;53112;45.602;11.904;2022-07-01T12:04:42;7.97;;;2.58;;
62574;SDS011;53112;45.602;11.904;2022-07-01T12:07:09;7.43;;;2.58;;
62574;SDS011;53112;45.602;11.904;2022-07-01T12:09:37;7.63;;;2.40;;
62574;SDS011;53112;45.602;11.904;2022-07-01T12:12:04;7.13;;;2.53;;
62574;SDS011;53112;45.602;11.904;2022-07-01T12:14:32;7.65;;;2.53;;
62574;SDS011;53112;45.602;11.904;2022-07-01T12:17:00;5.93;;;2.25;;
62574;SDS011;53112;45.602;11.904;2022-07-01T12:22:04;9.35;;;2.88;;
62574;SDS011;53112;45.602;11.904;2022-07-01T12:24:33;8.57;;;2.78;;
62574;SDS011;53112;45.602;11.904;2022-07-01T12:29:29;8.82;;;2.67;;
62574;SDS011;53112;45.602;11.904;2022-07-01T12:32:10;9.50;;;2.78;;
62574;SDS011;53112;45.602;11.904;2022-07-01T12:34:41;10.70;;;2.67;;
62574;SDS011;53112;45.602;11.904;2022-07-01T12:37:08;9.30;;;3.15;;
62574;SDS011;53112;45.602;11.904;2022-07-01T12:39:53;7.70;;;2.67;;
62574;SDS011;53112;45.602;11.904;2022-07-01T12:42:36;9.13;;;2.60;;
62574;SDS011;53112;45.602;11.904;2022-07-01T12:45:12;10.88;;;2.85;;
62574;SDS011;53112;45.602;11.904;2022-07-01T12:47:42;11.98;;;2.97;;
62574;SDS011;53112;45.602;11.904;2022-07-01T12:50:13;9.02;;;2.80;;
62574;SDS011;53112;45.602;11.904;2022-07-01T12:53:08;11.20;;;2.70;;
62574;SDS011;53112;45.602;11.904;2022-07-01T12:55:43;10.27;;;3.00;;
62574;SDS011;53112;45.602;11.904;2022-07-01T12:58:14;9.77;;;2.70;;
62574;SDS011;53112;45.602;11.904;2022-07-01T13:00:54;7.75;;;2.60;;
62574;SDS011;53112;45.602;11.904;2022-07-01T13:03:26;11.10;;;3.13;;
62574;SDS011;53112;45.602;11.904;2022-07-01T13:05:53;9.93;;;2.97;;
62574;SDS011;53112;45.602;11.904;2022-07-01T13:08:20;9.02;;;2.92;;
62574;SDS011;53112;45.602;11.904;2022-07-01T13:10:47;10.45;;;2.80;;
62574;SDS011;53112;45.602;11.904;2022-07-01T13:13:14;12.40;;;3.05;;
62574;SDS011;53112;45.602;11.904;2022-07-01T13:15:44;11.73;;;3.35;;
62574;SDS011;53112;45.602;11.904;2022-07-01T13:18:10;9.18;;;3.08;;
62574;SDS011;53112;45.602;11.904;2022-07-01T13:20:39;13.68;;;3.20;;
62574;SDS011;53112;45.602;11.904;2022-07-01T13:23:06;11.48;;;3.38;;
62574;SDS011;53112;45.602;11.904;2022-07-01T13:25:32;9.02;;;2.67;;
62574;SDS011;53112;45.602;11.904;2022-07-01T13:27:58;9.70;;;3.05;;
62574;SDS011;53112;45.602;11.904;2022-07-01T13:30:24;11.65;;;3.10;;
62574;SDS011;53112;45.602;11.904;2022-07-01T13:32:51;11.32;;;2.88;;
62574;SDS011;53112;45.602;11.904;2022-07-01T13:35:19;12.88;;;3.03;;
62574;SDS011;53112;45.602;11.904;2022-07-01T13:37:46;11.60;;;3.08;;
62574;SDS011;53112;45.602;11.904;2022-07-01T13:40:12;6.72;;;2.58;;
62574;SDS011;53112;45.602;11.904;2022-07-01T13:42:38;9.48;;;3.20;;
62574;SDS011;53112;45.602;11.904;2022-07-01T13:45:04;8.80;;;2.88;;
62574;SDS011;53112;45.602;11.904;2022-07-01T13:47:30;10.02;;;3.15;;
62574;SDS011;53112;45.602;11.904;2022-07-01T13:49:56;10.18;;;3.13;;
62574;SDS011;53112;45.602;11.904;2022-07-01T13:52:22;10.88;;;3.08;;
62574;SDS011;53112;45.602;11.904;2022-07-01T13:54:48;8.60;;;3.13;;
62574;SDS011;53112;45.602;11.904;2022-07-01T13:57:15;7.97;;;3.03;;
62574;SDS011;53112;45.602;11.904;2022-07-01T13:59:41;9.00;;;3.40;;
62574;SDS011;53112;45.602;11.904;2022-07-01T14:02:08;9.07;;;3.13;;
62574;SDS011;53112;45.602;11.904;2022-07-01T14:04:34;9.77;;;3.20;;
62574;SDS011;53112;45.602;11.904;2022-07-01T14:07:00;12.02;;;3.47;;
62574;SDS011;53112;45.602;11.904;2022-07-01T14:09:26;13.35;;;3.88;;
62574;SDS011;53112;45.602;11.904;2022-07-01T14:11:52;12.48;;;3.92;;
62574;SDS011;53112;45.602;11.904;2022-07-01T14:14:18;10.57;;;3.55;;
62574;SDS011;53112;45.602;11.904;2022-07-01T14:16:43;11.55;;;3.80;;
62574;SDS011;53112;45.602;11.904;2022-07-01T14:19:09;13.98;;;4.25;;
62574;SDS011;53112;45.602;11.904;2022-07-01T14:21:35;11.13;;;3.90;;
62574;SDS011;53112;45.602;11.904;2022-07-01T14:24:03;11.95;;;3.90;;
62574;SDS011;53112;45.602;11.904;2022-07-01T14:26:30;14.23;;;4.13;;
62574;SDS011;53112;45.602;11.904;2022-07-01T14:28:55;11.95;;;3.60;;
62574;SDS011;53112;45.602;11.904;2022-07-01T14:31:21;11.98;;;3.53;;
62574;SDS011;53112;45.602;11.904;2022-07-01T14:33:47;11.98;;;4.00;;
62574;SDS011;53112;45.602;11.904;2022-07-01T14:36:13;12.30;;;3.67;;
62574;SDS011;53112;45.602;11.904;2022-07-01T14:38:39;7.95;;;3.33;;
62574;SDS011;53112;45.602;11.904;2022-07-01T14:41:05;9.88;;;3.47;;
62574;SDS011;53112;45.602;11.904;2022-07-01T14:43:31;10.52;;;3.70;;
62574;SDS011;53112;45.602;11.904;2022-07-01T14:45:57;11.05;;;3.83;;
62574;SDS011;53112;45.602;11.904;2022-07-01T14:48:23;11.95;;;4.10;;
62574;SDS011;53112;45.602;11.904;2022-07-01T14:50:49;13.55;;;4.82;;
62574;SDS011;53112;45.602;11.904;2022-07-01T14:53:15;17.00;;;5.05;;
62574;SDS011;53112;45.602;11.904;2022-07-01T14:55:40;13.10;;;4.93;;
62574;SDS011;53112;45.602;11.904;2022-07-01T14:58:06;16.02;;;4.90;;
62574;SDS011;53112;45.602;11.904;2022-07-01T15:00:33;13.60;;;4.43;;